createdAt,value
2023-05-14T00:01:16.396Z,95415.72
2023-05-14T00:03:43.299Z,95406.94
2023-05-14T00:06:10.890Z,95415.25
2023-05-14T00:08:37.631Z,95409.28
2023-05-14T00:11:04.378Z,95404.97
2023-05-14T00:13:30.991Z,95413.19
2023-05-14T00:15:57.789Z,95397.09
2023-05-14T00:18:24.521Z,95394.06
2023-05-14T00:20:54.770Z,95408.81
2023-05-14T00:23:22.766Z,95402.28
2023-05-14T00:25:49.600Z,95393.31
2023-05-14T00:28:16.926Z,95380.25
2023-05-14T00:30:45.053Z,95380.75
2023-05-14T00:33:11.957Z,95392.94
2023-05-14T00:35:38.686Z,95383.56
2023-05-14T00:38:05.354Z,95385.75
2023-05-14T00:40:32.052Z,95385.47
2023-05-14T00:42:58.916Z,95381.84
2023-05-14T00:45:26.008Z,95377.94
2023-05-14T00:47:53.590Z,95387.03
2023-05-14T00:50:21.224Z,95389.34
2023-05-14T00:52:48.032Z,95367.38
2023-05-14T00:55:16.703Z,95364.91
2023-05-14T00:57:43.915Z,95365.00
2023-05-14T01:00:11.136Z,95362.81
2023-05-14T01:02:38.102Z,95357.78
2023-05-14T01:05:05.459Z,95372.31
2023-05-14T01:07:53.021Z,95377.78
2023-05-14T01:10:19.678Z,95364.09
2023-05-14T01:13:10.993Z,95366.28
2023-05-14T01:15:39.668Z,95326.44
2023-05-14T01:18:11.637Z,95362.38
2023-05-14T01:20:38.386Z,95364.75
2023-05-14T01:23:05.035Z,95384.47
2023-05-14T01:25:32.538Z,95390.56
2023-05-14T01:28:13.166Z,95370.09
2023-05-14T01:30:45.970Z,95396.38
2023-05-14T01:33:16.258Z,95390.63
2023-05-14T01:35:43.417Z,95387.22
2023-05-14T01:38:12.449Z,95386.47
2023-05-14T01:40:40.037Z,95398.44
2023-05-14T01:43:06.886Z,95366.19
2023-05-14T01:45:36.169Z,95391.94
2023-05-14T01:48:03.514Z,95391.66
2023-05-14T01:50:30.387Z,95393.63
2023-05-14T01:52:57.085Z,95400.03
2023-05-14T01:55:24.531Z,95393.34
2023-05-14T01:57:54.799Z,95397.94
2023-05-14T02:00:26.190Z,95369.19
2023-05-14T02:02:53.184Z,95392.53
2023-05-14T02:05:19.985Z,95399.69
2023-05-14T02:07:46.541Z,95399.84
2023-05-14T02:10:13.181Z,95401.19
2023-05-14T02:12:39.784Z,95398.53
2023-05-14T02:15:08.934Z,95396.25
2023-05-14T02:17:35.709Z,95410.69
2023-05-14T02:20:02.361Z,95406.44
2023-05-14T02:22:28.939Z,95404.19
2023-05-14T02:24:56.158Z,95393.72
2023-05-14T02:27:22.844Z,95398.44
2023-05-14T02:29:49.485Z,95405.31
2023-05-14T02:32:16.203Z,95403.66
2023-05-14T02:34:42.840Z,95390.78
2023-05-14T02:37:09.572Z,95410.06
2023-05-14T02:39:36.294Z,95408.84
2023-05-14T02:42:02.956Z,95413.88
2023-05-14T02:44:31.854Z,95409.63
2023-05-14T02:46:58.538Z,95418.13
2023-05-14T02:49:25.289Z,95423.72
2023-05-14T02:51:51.893Z,95414.34
2023-05-14T02:54:18.518Z,95436.19
2023-05-14T02:56:45.116Z,95421.09
2023-05-14T02:59:11.689Z,95426.91
2023-05-14T03:01:38.649Z,95429.94
2023-05-14T03:04:05.632Z,95420.38
2023-05-14T03:06:32.295Z,95413.28
2023-05-14T03:08:58.920Z,95417.97
2023-05-14T03:11:25.586Z,95411.59
2023-05-14T03:13:52.212Z,95397.03
2023-05-14T03:16:19.042Z,95394.31
2023-05-14T03:18:45.709Z,95381.56
2023-05-14T03:21:12.587Z,95401.16
2023-05-14T03:23:39.288Z,95402.22
2023-05-14T03:26:06.487Z,95401.16
2023-05-14T03:28:33.778Z,95420.41
2023-05-14T03:31:01.298Z,95412.69
2023-05-14T03:33:28.282Z,95418.63
2023-05-14T03:35:54.961Z,95423.31
2023-05-14T03:38:21.725Z,95423.19
2023-05-14T03:40:48.392Z,95415.94
2023-05-14T03:43:15.174Z,95419.63
2023-05-14T03:45:41.890Z,95411.56
2023-05-14T03:48:08.543Z,95406.91
2023-05-14T03:50:35.415Z,95411.56
2023-05-14T03:53:02.150Z,95421.44
2023-05-14T03:55:28.830Z,95426.78
2023-05-14T03:57:55.733Z,95427.19
2023-05-14T04:00:22.760Z,95411.44
2023-05-14T04:02:49.919Z,95415.09
2023-05-14T04:05:17.146Z,95420.41
2023-05-14T04:07:45.392Z,95425.84
2023-05-14T04:10:13.514Z,95432.53
2023-05-14T04:12:40.130Z,95436.78
2023-05-14T04:15:07.434Z,95427.66
2023-05-14T04:17:35.089Z,95429.63
2023-05-14T04:20:01.931Z,95432.34
2023-05-14T04:22:28.598Z,95428.41
2023-05-14T04:24:55.416Z,95441.31
2023-05-14T04:27:22.347Z,95444.19
2023-05-14T04:29:50.427Z,95441.19
2023-05-14T04:32:18.204Z,95433.28
2023-05-14T04:34:45.086Z,95454.22
2023-05-14T04:37:11.765Z,95434.50
2023-05-14T04:39:38.429Z,95456.19
2023-05-14T04:42:06.804Z,95444.53
2023-05-14T04:44:34.815Z,95475.94
2023-05-14T04:47:02.112Z,95479.44
2023-05-14T04:49:29.198Z,95484.91
2023-05-14T04:51:55.896Z,95489.75
2023-05-14T04:54:22.828Z,95495.84
2023-05-14T04:56:50.216Z,95497.91
2023-05-14T04:59:16.917Z,95495.34
2023-05-14T05:01:43.638Z,95496.09
2023-05-14T05:04:10.481Z,95511.13
2023-05-14T05:06:37.233Z,95497.47
2023-05-14T05:09:04.622Z,95506.44
2023-05-14T05:11:31.486Z,95526.59
2023-05-14T05:13:58.104Z,95526.59
2023-05-14T05:16:25.065Z,95531.25
2023-05-14T05:18:51.837Z,95525.03
2023-05-14T05:21:18.620Z,95534.97
2023-05-14T05:23:45.234Z,95540.56
2023-05-14T05:26:11.868Z,95533.72
2023-05-14T05:28:38.664Z,95543.22
2023-05-14T05:31:05.710Z,95534.50
2023-05-14T05:33:35.903Z,95529.88
2023-05-14T05:36:02.864Z,95530.06
2023-05-14T05:38:29.473Z,95529.09
2023-05-14T05:40:56.193Z,95544.69
2023-05-14T05:43:22.773Z,95547.38
2023-05-14T05:45:49.481Z,95517.09
2023-05-14T05:48:16.136Z,95541.81
2023-05-14T05:50:44.827Z,95553.47
2023-05-14T05:53:12.545Z,95535.84
2023-05-14T05:55:39.112Z,95541.09
2023-05-14T05:58:05.774Z,95537.09
2023-05-14T06:00:32.372Z,95536.47
2023-05-14T06:02:59.084Z,95512.19
2023-05-14T06:05:25.959Z,95545.91
2023-05-14T06:07:53.752Z,95548.50
2023-05-14T06:10:20.667Z,95547.22
2023-05-14T06:12:47.350Z,95533.75
2023-05-14T06:15:14.529Z,95534.06
2023-05-14T06:17:41.613Z,95544.06
2023-05-14T06:20:09.091Z,95529.56
2023-05-14T06:22:35.767Z,95531.63
2023-05-14T06:25:02.353Z,95533.16
2023-05-14T06:27:29.024Z,95528.84
2023-05-14T06:29:56.236Z,95543.88
2023-05-14T06:32:22.965Z,95548.72
2023-05-14T06:34:49.605Z,95549.84
2023-05-14T06:37:16.265Z,95547.88
2023-05-14T06:39:50.160Z,95546.78
2023-05-14T06:42:17.433Z,95561.81
2023-05-14T06:44:44.834Z,95548.94
2023-05-14T06:47:11.723Z,95548.88
2023-05-14T06:49:39.117Z,95531.06
2023-05-14T06:52:06.386Z,95539.63
2023-05-14T06:54:33.019Z,95528.66
2023-05-14T06:56:59.634Z,95526.47
2023-05-14T06:59:26.493Z,95524.91
2023-05-14T07:01:53.190Z,95542.28
2023-05-14T07:04:19.912Z,95536.84
2023-05-14T07:06:49.737Z,95550.84
2023-05-14T07:09:20.285Z,95528.38
2023-05-14T07:11:46.984Z,95546.59
2023-05-14T07:14:13.744Z,95563.25
2023-05-14T07:16:41.717Z,95568.16
2023-05-14T07:19:08.537Z,95578.59
2023-05-14T07:21:35.965Z,95578.06
2023-05-14T07:24:02.647Z,95565.66
2023-05-14T07:26:29.285Z,95566.88
2023-05-14T07:28:55.884Z,95565.16
2023-05-14T07:31:22.527Z,95552.22
2023-05-14T07:33:49.360Z,95558.31
2023-05-14T07:36:16.035Z,95541.97
2023-05-14T07:38:42.664Z,95568.00
2023-05-14T07:41:09.314Z,95574.75
2023-05-14T07:43:35.942Z,95551.97
2023-05-14T07:46:02.657Z,95568.91
2023-05-14T07:48:29.306Z,95559.34
2023-05-14T07:50:56.517Z,95573.59
2023-05-14T07:53:23.633Z,95587.63
2023-05-14T07:55:50.511Z,95579.03
2023-05-14T07:58:21.129Z,95568.81
2023-05-14T08:00:47.732Z,95576.31
2023-05-14T08:03:14.724Z,95585.25
2023-05-14T08:05:41.819Z,95584.97
2023-05-14T08:08:08.435Z,95593.47
2023-05-14T08:10:35.115Z,95584.25
2023-05-14T08:13:01.977Z,95571.53
2023-05-14T08:15:28.713Z,95560.63
2023-05-14T08:17:55.861Z,95566.19
2023-05-14T08:20:23.199Z,95561.38
2023-05-14T08:22:50.018Z,95560.88
2023-05-14T08:25:16.685Z,95549.25
2023-05-14T08:27:43.399Z,95551.00
2023-05-14T08:30:10.435Z,95551.16
2023-05-14T08:32:38.851Z,95544.81
2023-05-14T08:35:06.116Z,95543.19
2023-05-14T08:37:32.820Z,95535.41
2023-05-14T08:39:59.582Z,95529.78
2023-05-14T08:42:28.801Z,95533.81
2023-05-14T08:45:02.472Z,95527.53
2023-05-14T08:47:30.972Z,95531.59
2023-05-14T08:50:08.336Z,95536.97
2023-05-14T08:52:35.224Z,95526.72
2023-05-14T08:55:06.421Z,95530.97
2023-05-14T08:57:33.927Z,95536.53
2023-05-14T09:00:01.442Z,95535.69
2023-05-14T09:02:30.525Z,95554.47
2023-05-14T09:05:02.721Z,95551.56
2023-05-14T09:07:29.474Z,95527.53
2023-05-14T09:09:56.506Z,95511.41
2023-05-14T09:12:23.195Z,95527.94
2023-05-14T09:14:50.579Z,95514.47
2023-05-14T09:17:17.797Z,95526.06
2023-05-14T09:19:47.404Z,95522.78
2023-05-14T09:22:15.588Z,95518.63
2023-05-14T09:24:43.110Z,95517.38
2023-05-14T09:27:15.686Z,95529.25
2023-05-14T09:29:42.284Z,95506.72
2023-05-14T09:32:10.867Z,95503.78
2023-05-14T09:34:38.076Z,95517.22
2023-05-14T09:37:07.073Z,95514.31
2023-05-14T09:42:03.692Z,95501.31
2023-05-14T09:44:30.337Z,95508.34
2023-05-14T09:46:57.053Z,95502.91
2023-05-14T09:49:23.895Z,95515.31
2023-05-14T09:51:51.135Z,95515.06
2023-05-14T09:54:18.056Z,95501.84
2023-05-14T09:56:45.074Z,95487.44
2023-05-14T09:59:11.909Z,95495.22
2023-05-14T10:01:38.942Z,95482.97
2023-05-14T10:04:07.889Z,95478.81
2023-05-14T10:06:38.121Z,95481.00
2023-05-14T10:09:09.980Z,95485.78
2023-05-14T10:11:38.472Z,95483.88
2023-05-14T10:14:10.532Z,95446.75
2023-05-14T10:17:03.669Z,95471.22
2023-05-14T10:19:54.061Z,95446.03
2023-05-14T10:22:38.250Z,95351.50
2023-05-14T10:25:51.886Z,95471.19
2023-05-14T10:28:25.832Z,95438.81
2023-05-14T10:31:07.492Z,95476.50
2023-05-14T10:33:59.791Z,95406.66
2023-05-14T10:39:49.248Z,95375.97
2023-05-14T10:42:51.001Z,95469.28
2023-05-14T10:45:41.712Z,95463.88
2023-05-14T10:48:26.279Z,95457.19
2023-05-14T10:51:08.317Z,95457.56
2023-05-14T10:53:51.159Z,95470.19
2023-05-14T10:56:32.425Z,95379.84
2023-05-14T10:59:10.979Z,95331.25
2023-05-14T11:01:45.742Z,95348.84
2023-05-14T11:04:26.685Z,95427.06
2023-05-14T11:07:12.858Z,95404.84
2023-05-14T11:13:24.463Z,95485.53
2023-05-14T11:18:42.254Z,95418.38
2023-05-14T11:21:46.865Z,95465.47
2023-05-14T11:24:25.294Z,95461.44
2023-05-14T11:26:53.417Z,95470.44
2023-05-14T11:29:33.593Z,95388.94
2023-05-14T11:32:02.415Z,95460.06
2023-05-14T11:34:29.540Z,95431.81
2023-05-14T11:36:56.774Z,95386.13
2023-05-14T11:39:23.952Z,95422.91
2023-05-14T11:41:50.861Z,95414.66
2023-05-14T11:44:17.775Z,95408.47
2023-05-14T11:47:02.925Z,95445.25
2023-05-14T11:49:41.644Z,95393.72
2023-05-14T11:52:11.816Z,95398.59
2023-05-14T11:54:45.115Z,95400.03
2023-05-14T11:57:17.472Z,95307.59
2023-05-14T11:59:45.848Z,95348.03
2023-05-14T12:02:24.277Z,95365.78
2023-05-14T12:04:54.677Z,95418.13
2023-05-14T12:07:26.733Z,95431.78
2023-05-14T12:09:54.415Z,95417.53
2023-05-14T12:12:29.935Z,95410.25
2023-05-14T12:20:42.515Z,95314.13
2023-05-14T12:23:15.523Z,95399.94
2023-05-14T12:25:53.869Z,95307.91
2023-05-14T12:28:23.006Z,95305.66
2023-05-14T12:31:03.585Z,95293.53
2023-05-14T12:33:31.665Z,95335.97
2023-05-14T12:38:33.456Z,95359.91
2023-05-14T12:41:00.572Z,95376.56
2023-05-14T12:43:32.180Z,95331.09
2023-05-14T12:45:59.076Z,95326.88
2023-05-14T12:48:26.173Z,95353.22
2023-05-14T12:50:52.850Z,95349.75
2023-05-14T12:53:20.372Z,95367.97
2023-05-14T12:55:47.630Z,95344.63
2023-05-14T12:58:14.873Z,95314.44
2023-05-14T13:00:53.260Z,95292.31
2023-05-14T13:03:21.249Z,95231.72
2023-05-14T13:05:57.114Z,95279.75
2023-05-14T13:08:27.343Z,95301.72
2023-05-14T13:10:55.038Z,95350.22
2023-05-14T13:13:22.182Z,95347.63
2023-05-14T13:15:49.776Z,95286.84
2023-05-14T13:18:17.856Z,95312.34
2023-05-14T13:20:47.677Z,95314.16
2023-05-14T13:23:19.000Z,95338.81
2023-05-14T13:25:50.076Z,95237.78
2023-05-14T13:28:18.561Z,95323.50
2023-05-14T13:31:13.281Z,95233.53
2023-05-14T13:33:44.397Z,95249.13
2023-05-14T13:36:13.751Z,95252.00
2023-05-14T13:38:40.760Z,95252.91
2023-05-14T13:41:09.345Z,95286.56
2023-05-14T13:43:37.389Z,95314.59
2023-05-14T13:46:08.900Z,95202.19
2023-05-14T13:48:37.893Z,95319.72
2023-05-14T13:51:05.312Z,95308.69
2023-05-14T13:53:32.167Z,95210.16
2023-05-14T13:56:01.331Z,95289.13
2023-05-14T13:58:31.362Z,95259.28
2023-05-14T14:00:58.093Z,95257.44
2023-05-14T14:03:26.153Z,95267.31
2023-05-14T14:05:52.823Z,95268.97
2023-05-14T14:08:23.865Z,95305.34
2023-05-14T14:10:54.441Z,95285.81
2023-05-14T14:13:23.040Z,95289.31
2023-05-14T14:15:50.274Z,95287.16
2023-05-14T14:18:17.299Z,95283.84
2023-05-14T14:20:44.069Z,95257.78
2023-05-14T14:23:10.849Z,95292.63
2023-05-14T14:25:51.143Z,95270.94
2023-05-14T14:28:19.158Z,95300.03
2023-05-14T14:30:46.243Z,95226.97
2023-05-14T14:33:12.981Z,95299.44
2023-05-14T14:35:40.145Z,95244.44
2023-05-14T14:38:06.919Z,95303.22
2023-05-14T14:40:34.732Z,95291.56
2023-05-14T14:43:04.940Z,95278.09
2023-05-14T14:45:32.078Z,95305.50
2023-05-14T14:48:38.024Z,95296.09
2023-05-14T14:51:06.498Z,95236.50
2023-05-14T14:53:34.386Z,95314.91
2023-05-14T14:56:02.220Z,95293.38
2023-05-14T14:58:29.528Z,95218.94
2023-05-14T15:00:59.737Z,95225.88
2023-05-14T15:03:30.848Z,95241.34
2023-05-14T15:05:59.142Z,95160.63
2023-05-14T15:08:36.049Z,95311.09
2023-05-14T15:14:29.158Z,95289.28
2023-05-14T15:17:13.552Z,95303.63
2023-05-14T15:19:40.772Z,95279.56
2023-05-14T15:22:10.896Z,95306.94
2023-05-14T15:24:50.665Z,95240.09
2023-05-14T15:27:18.998Z,95235.22
2023-05-14T15:29:45.935Z,95216.56
2023-05-14T15:32:13.122Z,95246.13
2023-05-14T15:34:40.071Z,95278.59
2023-05-14T15:37:08.002Z,95305.31
2023-05-14T15:39:34.798Z,95258.88
2023-05-14T15:42:02.910Z,95309.25
2023-05-14T15:44:29.672Z,95274.19
2023-05-14T15:46:56.754Z,95277.81
2023-05-14T15:49:38.577Z,95289.81
2023-05-14T15:52:05.582Z,95298.63
2023-05-14T15:54:32.224Z,95309.34
2023-05-14T15:56:59.148Z,95298.63
2023-05-14T15:59:26.011Z,95220.53
2023-05-14T16:05:07.981Z,95252.34
2023-05-14T16:07:44.378Z,95256.00
2023-05-14T16:10:23.690Z,95267.81
2023-05-14T16:12:51.873Z,95263.13
2023-05-14T16:15:23.757Z,95279.09
2023-05-14T16:17:53.073Z,95250.53
2023-05-14T16:20:24.913Z,95176.41
2023-05-14T16:23:00.455Z,95266.16
2023-05-14T16:25:29.244Z,95209.50
2023-05-14T16:27:57.786Z,95278.44
2023-05-14T16:30:26.006Z,95290.72
2023-05-14T16:32:53.469Z,95236.56
2023-05-14T16:35:25.747Z,95245.88
2023-05-14T16:37:52.507Z,95270.59
2023-05-14T16:40:20.104Z,95266.47
2023-05-14T16:42:49.153Z,95253.16
2023-05-14T16:45:16.726Z,95280.13
2023-05-14T16:47:44.949Z,95269.56
2023-05-14T16:50:15.403Z,95278.50
2023-05-14T16:52:47.948Z,95152.41
2023-05-14T16:55:15.037Z,95276.53
2023-05-14T16:57:44.433Z,95267.31
2023-05-14T17:00:16.060Z,95162.56
2023-05-14T17:02:54.734Z,95199.72
2023-05-14T17:05:21.817Z,95196.69
2023-05-14T17:07:49.098Z,95234.47
2023-05-14T17:10:16.599Z,95233.84
2023-05-14T17:12:43.766Z,95251.88
2023-05-14T17:15:11.314Z,95170.63
2023-05-14T17:17:38.421Z,95230.53
2023-05-14T17:20:10.661Z,95228.69
2023-05-14T17:22:49.024Z,95228.09
2023-05-14T17:25:24.169Z,95218.53
2023-05-14T17:38:14.488Z,95212.44
2023-05-14T17:40:41.377Z,95174.56
2023-05-14T17:43:08.622Z,95205.94
2023-05-14T17:45:46.278Z,95140.34
2023-05-14T17:48:20.363Z,95211.44
2023-05-14T17:50:47.177Z,95187.16
2023-05-14T17:53:14.010Z,95200.19
2023-05-14T17:55:43.666Z,95217.91
2023-05-14T17:58:13.406Z,95211.13
2023-05-14T18:00:40.851Z,95221.88
2023-05-14T18:03:08.015Z,95215.81
2023-05-14T18:05:34.752Z,95225.94
2023-05-14T18:08:01.449Z,95209.88
2023-05-14T18:10:32.352Z,95229.91
2023-05-14T18:12:59.479Z,95229.31
2023-05-14T18:15:27.401Z,95237.31
2023-05-14T18:17:54.475Z,95242.47
2023-05-14T18:20:24.181Z,95237.47
2023-05-14T18:22:52.349Z,95230.06
2023-05-14T18:25:19.222Z,95227.03
2023-05-14T18:27:46.990Z,95220.22
2023-05-14T18:30:15.658Z,95202.34
2023-05-14T18:32:44.492Z,95218.09
2023-05-14T18:35:12.559Z,95176.84
2023-05-14T18:37:39.863Z,95201.00
2023-05-14T18:40:07.684Z,95201.00
2023-05-14T18:42:35.186Z,95203.38
2023-05-14T18:45:02.357Z,95199.13
2023-05-14T18:47:29.609Z,95184.44
2023-05-14T18:49:59.088Z,95184.91
2023-05-14T18:52:26.696Z,95218.94
2023-05-14T18:54:55.204Z,95212.44
2023-05-14T18:57:22.529Z,95178.66
2023-05-14T18:59:49.367Z,95237.47
2023-05-14T19:02:16.374Z,95243.81
2023-05-14T19:04:51.646Z,95232.94
2023-05-14T19:07:20.873Z,95246.25
2023-05-14T19:09:48.317Z,95232.34
2023-05-14T19:12:15.219Z,95242.00
2023-05-14T19:14:42.391Z,95192.63
2023-05-14T19:17:09.623Z,95209.88
2023-05-14T19:19:36.739Z,95241.25
2023-05-14T19:22:03.994Z,95222.59
2023-05-14T19:24:30.948Z,95187.75
2023-05-14T19:26:58.350Z,95225.19
2023-05-14T19:29:25.264Z,95246.53
2023-05-14T19:31:52.222Z,95202.59
2023-05-14T19:34:19.213Z,95239.25
2023-05-14T19:36:46.091Z,95227.56
2023-05-14T19:39:13.512Z,95277.75
2023-05-14T19:41:40.504Z,95260.16
2023-05-14T19:44:07.201Z,95238.69
2023-05-14T19:46:40.946Z,95213.94
2023-05-14T19:49:07.732Z,95207.28
2023-05-14T19:51:34.464Z,95215.63
2023-05-14T19:54:01.316Z,95216.09
2023-05-14T19:56:28.128Z,95213.50
2023-05-14T19:58:55.126Z,95212.66
2023-05-14T20:01:29.716Z,95213.22
2023-05-14T20:03:56.571Z,95212.50
2023-05-14T20:06:26.101Z,95224.75
2023-05-14T20:08:55.257Z,95200.66
2023-05-14T20:11:22.030Z,95211.72
2023-05-14T20:13:48.821Z,95218.53
2023-05-14T20:16:17.005Z,95208.72
2023-05-14T20:18:44.244Z,95216.25
2023-05-14T20:21:11.250Z,95218.53
2023-05-14T20:23:38.131Z,95221.72
2023-05-14T20:26:08.916Z,95198.56
2023-05-14T20:28:36.061Z,95210.53
2023-05-14T20:31:04.139Z,95196.59
2023-05-14T20:33:31.170Z,95207.34
2023-05-14T20:35:59.681Z,95196.31
2023-05-14T20:38:29.549Z,95216.88
2023-05-14T20:40:56.549Z,95183.22
2023-05-14T20:43:23.503Z,95164.44
2023-05-14T20:45:50.260Z,95198.69
2023-05-14T20:48:17.713Z,95170.53
2023-05-14T20:50:44.569Z,95214.59
2023-05-14T20:53:11.585Z,95184.19
2023-05-14T20:55:39.537Z,95128.91
2023-05-14T20:58:06.497Z,95179.63
2023-05-14T21:00:33.097Z,95158.25
2023-05-14T21:03:00.488Z,95170.81
2023-05-14T21:05:28.155Z,95182.47
2023-05-14T21:07:54.959Z,95179.00
2023-05-14T21:10:21.865Z,95195.94
2023-05-14T21:12:48.817Z,95135.66
2023-05-14T21:15:15.589Z,95170.03
2023-05-14T21:17:42.665Z,95188.81
2023-05-14T21:20:12.032Z,95197.59
2023-05-14T21:22:40.045Z,95185.78
2023-05-14T21:25:06.935Z,95145.06
2023-05-14T21:27:33.902Z,95140.38
2023-05-14T21:30:00.638Z,95095.25
2023-05-14T21:32:27.779Z,95151.88
2023-05-14T21:34:55.286Z,95156.72
2023-05-14T21:37:22.268Z,95168.25
2023-05-14T21:39:49.547Z,95123.88
2023-05-14T21:42:16.602Z,95164.78
2023-05-14T21:44:43.375Z,95170.81
2023-05-14T21:47:10.077Z,95139.63
2023-05-14T21:49:36.844Z,95131.44
2023-05-14T21:52:03.826Z,95185.78
2023-05-14T21:54:30.572Z,95171.28
2023-05-14T21:56:57.290Z,95165.66
2023-05-14T21:59:24.328Z,95139.31
2023-05-14T22:02:06.368Z,95167.19
2023-05-14T22:04:34.451Z,95108.00
2023-05-14T22:07:01.583Z,95166.28
2023-05-14T22:09:28.188Z,95164.91
2023-05-14T22:11:54.823Z,95176.72
2023-05-14T22:14:21.475Z,95163.22
2023-05-14T22:16:48.213Z,95151.59
2023-05-14T22:19:16.533Z,95145.53
2023-05-14T22:21:43.373Z,95158.41
2023-05-14T22:24:09.949Z,95160.50
2023-05-14T22:26:40.977Z,95144.50
2023-05-14T22:29:07.586Z,95137.34
2023-05-14T22:31:34.973Z,95155.50
2023-05-14T22:34:01.621Z,95154.00
2023-05-14T22:36:28.311Z,95144.63
2023-05-14T22:38:55.508Z,95131.47
2023-05-14T22:41:25.100Z,95129.19
2023-05-14T22:43:51.778Z,95127.22
2023-05-14T22:46:24.819Z,95142.97
2023-05-14T22:48:51.821Z,95068.34
2023-05-14T22:51:18.536Z,95117.84
2023-05-14T22:53:45.644Z,95124.97
2023-05-14T22:56:12.614Z,95103.47
2023-05-14T22:58:39.285Z,95104.84
2023-05-14T23:01:05.988Z,95112.56
2023-05-14T23:03:32.628Z,95112.38
2023-05-14T23:05:59.270Z,95123.75
2023-05-14T23:08:25.957Z,95134.81
2023-05-14T23:10:52.954Z,95129.03
2023-05-14T23:13:19.831Z,95114.34
2023-05-14T23:15:46.539Z,95117.84
2023-05-14T23:18:13.612Z,95116.31
2023-05-14T23:20:40.304Z,95097.72
2023-05-14T23:23:06.963Z,95090.75
2023-05-14T23:25:33.632Z,95093.19
2023-05-14T23:28:00.523Z,95080.91
2023-05-14T23:30:27.299Z,95060.94
2023-05-14T23:32:54.900Z,95072.44
2023-05-14T23:35:21.608Z,95046.13
2023-05-14T23:37:49.592Z,95031.91
2023-05-14T23:40:16.505Z,95056.56
2023-05-14T23:42:44.299Z,95030.09
2023-05-14T23:45:12.228Z,95028.25
2023-05-14T23:47:39.865Z,94982.78
2023-05-14T23:50:07.056Z,94997.88
2023-05-14T23:52:36.274Z,95014.06
2023-05-14T23:55:02.962Z,94995.91
2023-05-14T23:57:39.602Z,94983.19
